Airfield :
LOGIN :

Register | Disclaimer

   EN    FR    IT 

 










Legend :    VFR   Marginal VFR   IFR   Intensive IFR   Very Intensive IFR
Visi :
Ceiling :
>= 8 km
>= 3000ft
5 to 8 km
1000 to 3000 ft
1500m to 5 km
500 to 1000 ft
800 to 1500m
200 to 500 ft
< 800m
< 200 ft
Symbols :   Thunderstorms  Fog  Heavy snow  Heavy precipitations  Wind > 20 kt
SIGMETs :     Misc.  Thunderstorms  Icing  Turbulence  Mountain Waves  Volcanic Ashes






- Airport Elevation : 116 ft
- IATA code : ISC


EGHE - Scilly Isles / St Mary's

CURRENT METAR :
  • 271320Z 27020G30KT 9999 VCSH SCT025CB 14/12 Q1014

EXPIRED METARs :
  • 271250Z 24013KT 9999 2000W +SHRA SCT025CB 15/11 Q1014
  • 271220Z 26013KT 9999 VCSH FEW022CB 14/12 Q1014
  • 271150Z 26018KT 9999 SCT020CB 13/09 Q1014
  • 271120Z 25019KT 9999 VCSH SCT030CB 15/10 Q1013

TAF AMD TAF EGHE
Valid from the 27 at 12:00 until the 27 at 18:00 UTC


271231Z 2712/2718 26015KT 9999 SCT030
TEMPO 2712/2718 26020G30KT 7000 SHRA
PROB30
TEMPO 2712/2718 4000 +SHRA



MET'MAP, your aeronautical weather chart ! - Copyright ORBIFLY December 2007 - Disclaimer

ORBIFLY MET'MAP TEAM :

Programming & Development : Alexandra Zaïnal
Concept & original design : Baudouin d'Aumeries
Assistance for programming : Marc-Olivier Méhu
Technical & hardware support : Manuel Goepfert

Contact : metmap@orbifly.com




SOURCES & CREDITS :

   NOAA